Time;durP1;ratioP1;P1;durP2;ratioP2;P2;SDS_P1;SDS_P2;PMS_P1;PMS_P2;Temp;Humidity;BMP_temperature;BMP_pressure;BME280_temperature;BME280_humidity;BME280_pressure;Samples;Min_cycle;Max_cycle;Signal;HPM_P1;HPM_P2
2023/06/01 00:00:40;;;;;;;;;;;16.50;99.90;;;;;;5057663;28;19909;-60
2023/06/01 00:03:06;;;;;;;;;;;16.50;99.90;;;;;;5057683;28;20423;-60
2023/06/01 00:05:32;;;;;;;;;;;16.50;99.90;;;;;;5057454;28;20249;-59
2023/06/01 00:07:57;;;;;;;;;;;16.50;99.90;;;;;;5057830;28;19916;-60
2023/06/01 00:10:23;;;;;;;;;;;16.40;99.90;;;;;;5057501;28;19913;-60
2023/06/01 00:12:48;;;;;;;;;;;16.40;99.90;;;;;;5057596;28;19921;-60
2023/06/01 00:15:14;;;;;;;;;;;16.40;99.90;;;;;;5057789;28;19944;-60
2023/06/01 00:17:39;;;;;;;;;;;16.40;99.90;;;;;;5057542;28;19919;-60
2023/06/01 00:20:08;;;;;;;;;;;16.40;99.90;;;;;;5059618;28;19948;-59
2023/06/01 00:22:38;;;;;;;;;;;16.40;99.90;;;;;;5061490;28;19931;-60
2023/06/01 00:25:05;;;;;;;;;;;16.30;99.90;;;;;;5061560;28;19988;-60
2023/06/01 00:27:31;;;;;;;;;;;16.30;99.90;;;;;;5061806;28;20347;-59
2023/06/01 00:29:57;;;;;;;;;;;16.30;99.90;;;;;;5061496;28;19913;-60
2023/06/01 00:32:22;;;;;;;;;;;16.30;99.90;;;;;;5061342;28;19943;-60
2023/06/01 00:34:48;;;;;;;;;;;16.30;99.90;;;;;;5061715;28;19962;-59
2023/06/01 00:37:13;;;;;;;;;;;16.30;99.90;;;;;;5061414;28;19915;-60
2023/06/01 00:39:39;;;;;;;;;;;16.30;99.90;;;;;;5061122;28;20409;-60
2023/06/01 00:42:05;;;;;;;;;;;16.30;99.90;;;;;;5060912;28;19909;-60
2023/06/01 00:44:31;;;;;;;;;;;16.30;99.90;;;;;;5060988;28;19908;-59
2023/06/01 00:46:59;;;;;;;;;;;16.20;99.90;;;;;;5061211;28;19970;-59
2023/06/01 00:49:25;;;;;;;;;;;16.20;99.90;;;;;;5060800;28;19913;-60
2023/06/01 00:51:50;;;;;;;;;;;16.20;99.90;;;;;;5061094;28;19913;-60
2023/06/01 00:54:16;;;;;;;;;;;16.20;99.90;;;;;;5061021;28;19908;-59
2023/06/01 00:56:42;;;;;;;;;;;16.20;99.90;;;;;;5060886;28;20273;-60
2023/06/01 00:59:08;;;;;;;;;;;16.20;99.90;;;;;;5060981;28;19908;-60
2023/06/01 01:01:33;;;;;;;;;;;16.20;99.90;;;;;;5060809;28;19927;-60
2023/06/01 01:04:00;;;;;;;;;;;16.10;99.90;;;;;;5060716;28;19909;-60
2023/06/01 01:06:30;;;;;;;;;;;16.10;99.90;;;;;;5060687;28;19916;-60
2023/06/01 01:09:13;;;;;;;;;;;16.10;99.90;;;;;;5060583;28;19908;-59
2023/06/01 01:11:41;;;;;;;;;;;16.10;99.90;;;;;;5060886;28;19920;-60
2023/06/01 01:14:32;;;;;;;;;;;16.10;99.90;;;;;;5060190;28;20007;-60
2023/06/01 01:17:03;;;;;;;;;;;16.10;99.90;;;;;;5058218;28;19909;-60
2023/06/01 01:19:35;;;;;;;;;;;16.00;99.90;;;;;;5060887;28;19908;-58
2023/06/01 01:22:07;;;;;;;;;;;16.10;99.90;;;;;;5060371;28;19909;-59
2023/06/01 01:25:02;;;;;;;;;;;16.00;99.90;;;;;;5060470;28;20282;-59
2023/06/01 01:27:38;;;;;;;;;;;16.10;99.90;;;;;;5023466;28;19910;-59
2023/06/01 01:30:06;;;;;;;;;;;16.00;99.90;;;;;;5060297;28;19920;-59
2023/06/01 01:32:32;;;;;;;;;;;16.00;99.90;;;;;;5059489;28;19909;-59
2023/06/01 01:34:58;;;;;;;;;;;16.00;99.90;;;;;;5060187;28;19909;-59
2023/06/01 01:37:25;;;;;;;;;;;16.00;99.90;;;;;;5060263;28;19909;-59
2023/06/01 01:39:50;;;;;;;;;;;15.90;99.90;;;;;;5060412;28;20390;-59
2023/06/01 01:42:16;;;;;;;;;;;15.90;99.90;;;;;;5060719;28;19913;-59
2023/06/01 01:44:42;;;;;;;;;;;15.90;99.90;;;;;;5060002;28;19975;-60
2023/06/01 01:47:12;;;;;;;;;;;15.90;99.90;;;;;;5060059;28;19952;-59
2023/06/01 01:49:45;;;;;;;;;;;15.90;99.90;;;;;;5059555;28;19913;-60
2023/06/01 01:52:17;;;;;;;;;;;15.90;99.90;;;;;;5059771;28;20360;-59
2023/06/01 01:54:44;;;;;;;;;;;15.90;99.90;;;;;;5059840;28;19962;-59
2023/06/01 01:57:12;;;;;;;;;;;15.90;99.90;;;;;;5059889;28;19951;-59
2023/06/01 01:59:38;;;;;;;;;;;15.80;99.90;;;;;;5059657;28;19908;-59
2023/06/01 02:02:04;;;;;;;;;;;15.80;99.90;;;;;;5059602;28;19916;-60
2023/06/01 02:04:30;;;;;;;;;;;15.80;99.90;;;;;;5060022;28;19913;-60
2023/06/01 02:06:56;;;;;;;;;;;15.80;99.90;;;;;;5059426;28;19915;-59
2023/06/01 02:09:22;;;;;;;;;;;15.80;99.90;;;;;;5059468;28;19995;-59
2023/06/01 02:11:47;;;;;;;;;;;15.80;99.90;;;;;;5059785;28;19916;-60
2023/06/01 02:14:13;;;;;;;;;;;15.70;99.90;;;;;;5059134;28;19928;-60
2023/06/01 02:16:38;;;;;;;;;;;15.70;99.90;;;;;;5059520;28;19909;-60
2023/06/01 02:19:04;;;;;;;;;;;15.70;99.90;;;;;;5059418;28;19916;-59
2023/06/01 02:21:31;;;;;;;;;;;15.70;99.90;;;;;;5059230;28;20012;-57
2023/06/01 02:24:04;;;;;;;;;;;15.70;99.90;;;;;;5058974;28;19959;-60
2023/06/01 02:26:30;;;;;;;;;;;15.70;99.90;;;;;;5058933;28;19955;-60
2023/06/01 02:28:56;;;;;;;;;;;15.60;99.90;;;;;;5059159;28;19919;-59
2023/06/01 02:31:22;;;;;;;;;;;15.70;99.90;;;;;;5058916;28;19913;-60
2023/06/01 02:33:48;;;;;;;;;;;15.70;99.90;;;;;;5059034;28;19968;-60
2023/06/01 02:36:16;;;;;;;;;;;15.60;99.90;;;;;;5058937;28;20351;-59
2023/06/01 02:38:42;;;;;;;;;;;15.60;99.90;;;;;;5058818;28;19967;-59
2023/06/01 02:41:07;;;;;;;;;;;15.60;99.90;;;;;;5059301;28;19909;-60
2023/06/01 02:43:35;;;;;;;;;;;15.60;99.90;;;;;;5057849;28;20009;-60
2023/06/01 02:46:01;;;;;;;;;;;15.60;99.90;;;;;;5058625;28;20416;-59
2023/06/01 02:48:27;;;;;;;;;;;15.60;99.90;;;;;;5058636;28;20352;-60
2023/06/01 02:50:53;;;;;;;;;;;15.60;99.90;;;;;;5058653;28;19913;-59
2023/06/01 02:53:19;;;;;;;;;;;15.50;99.90;;;;;;5058869;28;19909;-59
2023/06/01 02:55:44;;;;;;;;;;;15.60;99.90;;;;;;5058578;28;19908;-59
2023/06/01 02:58:16;;;;;;;;;;;15.50;99.90;;;;;;5058470;28;19942;-58
2023/06/01 03:00:42;;;;;;;;;;;15.50;99.90;;;;;;5058967;28;19998;-60
2023/06/01 03:03:08;;;;;;;;;;;15.50;99.90;;;;;;5058628;28;19909;-60
2023/06/01 03:05:35;;;;;;;;;;;15.50;99.90;;;;;;5058623;28;19916;-59
2023/06/01 03:08:01;;;;;;;;;;;15.50;99.90;;;;;;5058241;28;19909;-59
2023/06/01 03:10:26;;;;;;;;;;;15.50;99.90;;;;;;5058414;28;19920;-59
2023/06/01 03:12:52;;;;;;;;;;;15.40;99.90;;;;;;5058277;28;19923;-60
2023/06/01 03:15:17;;;;;;;;;;;15.40;99.90;;;;;;5058248;28;19916;-59
2023/06/01 03:17:43;;;;;;;;;;;15.40;99.90;;;;;;5058466;28;19908;-59
2023/06/01 03:20:14;;;;;;;;;;;15.40;99.90;;;;;;5058189;28;20002;-59
2023/06/01 03:22:46;;;;;;;;;;;15.40;99.90;;;;;;5058630;28;19915;-58
2023/06/01 03:25:16;;;;;;;;;;;15.40;99.90;;;;;;5058027;28;19908;-59
2023/06/01 03:27:42;;;;;;;;;;;15.40;99.90;;;;;;5057854;28;20445;-59
2023/06/01 03:30:11;;;;;;;;;;;15.40;99.90;;;;;;5058130;28;20007;-60
2023/06/01 03:32:37;;;;;;;;;;;15.40;99.90;;;;;;5058063;28;19915;-59
2023/06/01 03:35:03;;;;;;;;;;;15.30;99.90;;;;;;5057882;28;20380;-59
2023/06/01 03:37:29;;;;;;;;;;;15.30;99.90;;;;;;5057745;28;19974;-59
2023/06/01 03:39:55;;;;;;;;;;;15.30;99.90;;;;;;5058236;28;19909;-59
2023/06/01 03:42:20;;;;;;;;;;;15.30;99.90;;;;;;5058184;28;20392;-59
2023/06/01 03:44:46;;;;;;;;;;;15.30;99.90;;;;;;5058307;28;19939;-59
2023/06/01 03:47:13;;;;;;;;;;;15.30;99.90;;;;;;5058003;28;20269;-59
2023/06/01 03:49:39;;;;;;;;;;;15.30;99.90;;;;;;5057529;28;20394;-58
2023/06/01 03:52:05;;;;;;;;;;;15.30;99.90;;;;;;5058130;28;19909;-59
2023/06/01 03:54:31;;;;;;;;;;;15.30;99.90;;;;;;5059601;28;19916;-60
2023/06/01 03:56:57;;;;;;;;;;;15.30;99.90;;;;;;5064402;28;19912;-60
2023/06/01 03:59:22;;;;;;;;;;;15.20;99.90;;;;;;5064796;28;19931;-59
2023/06/01 04:01:49;;;;;;;;;;;15.20;99.90;;;;;;5064627;28;19978;-59
2023/06/01 04:04:17;;;;;;;;;;;15.20;99.90;;;;;;5064458;28;19931;-58
2023/06/01 04:06:44;;;;;;;;;;;15.20;99.90;;;;;;5064293;28;20374;-59
2023/06/01 04:09:11;;;;;;;;;;;15.20;99.90;;;;;;5064342;28;19908;-59
2023/06/01 04:11:38;;;;;;;;;;;15.20;99.90;;;;;;5064499;28;19916;-58
2023/06/01 04:14:04;;;;;;;;;;;15.20;99.90;;;;;;5064197;28;19925;-59
2023/06/01 04:16:30;;;;;;;;;;;15.20;99.90;;;;;;5064383;28;19915;-60
2023/06/01 04:18:56;;;;;;;;;;;15.20;99.90;;;;;;5064380;28;19958;-60
2023/06/01 04:21:22;;;;;;;;;;;15.20;99.90;;;;;;5064226;28;19913;-60
2023/06/01 04:23:48;;;;;;;;;;;15.10;99.90;;;;;;5064575;28;19916;-59
2023/06/01 04:26:15;;;;;;;;;;;15.10;99.90;;;;;;5064354;28;19909;-59
2023/06/01 04:28:43;;;;;;;;;;;15.10;99.90;;;;;;5064305;28;19920;-59
2023/06/01 04:31:16;;;;;;;;;;;15.10;99.90;;;;;;5063956;28;19920;-60
2023/06/01 04:33:52;;;;;;;;;;;15.10;99.90;;;;;;5064624;28;19943;-59
2023/06/01 04:36:20;;;;;;;;;;;15.10;99.90;;;;;;5064110;28;19909;-59
2023/06/01 04:38:50;;;;;;;;;;;15.10;99.90;;;;;;5063909;28;19955;-59
2023/06/01 04:41:17;;;;;;;;;;;15.10;99.90;;;;;;5064076;28;19916;-59
2023/06/01 04:43:42;;;;;;;;;;;15.20;99.90;;;;;;5064329;28;19912;-59
2023/06/01 04:46:08;;;;;;;;;;;15.10;99.90;;;;;;5063980;28;20442;-60
2023/06/01 04:48:34;;;;;;;;;;;15.10;99.90;;;;;;5064154;28;19909;-59
2023/06/01 04:50:59;;;;;;;;;;;15.10;99.90;;;;;;5063896;28;19913;-58
2023/06/01 04:53:26;;;;;;;;;;;15.10;99.90;;;;;;5063826;28;19909;-60
2023/06/01 04:55:53;;;;;;;;;;;15.20;99.90;;;;;;5063685;28;20380;-59
2023/06/01 04:58:19;;;;;;;;;;;15.20;99.90;;;;;;5064031;28;19909;-59
2023/06/01 05:00:45;;;;;;;;;;;15.10;99.90;;;;;;5064131;28;19913;-60
2023/06/01 05:03:11;;;;;;;;;;;15.20;99.90;;;;;;5063824;28;19939;-59
2023/06/01 05:05:36;;;;;;;;;;;15.20;99.90;;;;;;5062926;28;20276;-59
2023/06/01 05:08:02;;;;;;;;;;;15.20;99.90;;;;;;5060081;28;19944;-59
2023/06/01 05:10:27;;;;;;;;;;;15.20;99.90;;;;;;5060625;28;19912;-59
2023/06/01 05:12:53;;;;;;;;;;;15.20;99.90;;;;;;5060550;28;19971;-59
2023/06/01 05:15:19;;;;;;;;;;;15.20;99.90;;;;;;5060791;28;19916;-60
2023/06/01 05:17:44;;;;;;;;;;;15.20;99.90;;;;;;5060453;28;19932;-59
2023/06/01 05:20:11;;;;;;;;;;;15.20;99.90;;;;;;5060597;28;19912;-59
2023/06/01 05:22:36;;;;;;;;;;;15.20;99.90;;;;;;5060307;28;19955;-59
2023/06/01 05:25:02;;;;;;;;;;;15.30;99.90;;;;;;5060746;28;19916;-59
2023/06/01 05:27:28;;;;;;;;;;;15.30;99.90;;;;;;5060258;28;19947;-59
2023/06/01 05:29:54;;;;;;;;;;;15.30;99.90;;;;;;5060460;28;20325;-59
2023/06/01 05:32:20;;;;;;;;;;;15.30;99.90;;;;;;5060072;28;19913;-59
2023/06/01 05:34:46;;;;;;;;;;;15.30;99.90;;;;;;5060201;28;19909;-59
2023/06/01 05:37:12;;;;;;;;;;;15.30;99.90;;;;;;5060279;28;19909;-59
2023/06/01 05:39:37;;;;;;;;;;;15.40;99.90;;;;;;5060203;28;19916;-59
2023/06/01 05:42:03;;;;;;;;;;;15.40;99.90;;;;;;5060010;28;19909;-59
2023/06/01 05:44:30;;;;;;;;;;;15.40;99.90;;;;;;5060225;28;19952;-60
2023/06/01 05:46:56;;;;;;;;;;;15.40;99.90;;;;;;5060310;28;19916;-59
2023/06/01 05:49:22;;;;;;;;;;;15.50;99.90;;;;;;5059578;28;19911;-60
2023/06/01 05:51:47;;;;;;;;;;;15.50;99.90;;;;;;5059997;28;19948;-60
2023/06/01 05:54:13;;;;;;;;;;;15.60;99.90;;;;;;5059796;28;19915;-60
2023/06/01 05:56:41;;;;;;;;;;;15.60;99.90;;;;;;5059855;28;19909;-59
2023/06/01 05:59:07;;;;;;;;;;;15.60;99.90;;;;;;5060151;28;19909;-59
2023/06/01 06:01:32;;;;;;;;;;;15.70;99.90;;;;;;5059583;28;19916;-58
2023/06/01 06:03:58;;;;;;;;;;;15.70;99.90;;;;;;5059930;28;19908;-59
2023/06/01 06:06:25;;;;;;;;;;;15.70;99.90;;;;;;5059903;28;19909;-59
2023/06/01 06:08:51;;;;;;;;;;;15.80;99.90;;;;;;5059405;28;19943;-59
2023/06/01 06:11:17;;;;;;;;;;;15.80;99.90;;;;;;5059217;28;20334;-60
2023/06/01 06:13:42;;;;;;;;;;;15.80;99.90;;;;;;5026129;28;20412;-59
2023/06/01 06:16:08;;;;;;;;;;;15.80;99.90;;;;;;5019570;28;19910;-60
2023/06/01 06:18:34;;;;;;;;;;;15.80;99.90;;;;;;5019699;28;19997;-59
2023/06/01 06:21:00;;;;;;;;;;;15.90;99.90;;;;;;5019957;28;19918;-59
2023/06/01 06:23:27;;;;;;;;;;;15.90;99.90;;;;;;5020024;28;19913;-59
2023/06/01 06:25:52;;;;;;;;;;;16.00;99.90;;;;;;5019618;28;19909;-58
2023/06/01 06:28:18;;;;;;;;;;;15.90;99.90;;;;;;5019469;28;19910;-59
2023/06/01 06:30:44;;;;;;;;;;;16.00;99.90;;;;;;5019535;28;19963;-59
2023/06/01 06:33:09;;;;;;;;;;;16.10;99.90;;;;;;5020025;28;19956;-59
2023/06/01 06:35:36;;;;;;;;;;;16.10;99.90;;;;;;5019700;28;19989;-59
2023/06/01 06:38:02;;;;;;;;;;;16.10;99.90;;;;;;5034631;28;19909;-59
2023/06/01 06:40:27;;;;;;;;;;;16.20;99.90;;;;;;5019808;28;20002;-59
2023/06/01 06:42:53;;;;;;;;;;;16.20;99.90;;;;;;5019962;28;19909;-59
2023/06/01 06:45:19;;;;;;;;;;;16.30;99.90;;;;;;5019685;28;20395;-59
2023/06/01 06:47:46;;;;;;;;;;;16.30;99.90;;;;;;5019439;28;19977;-59
2023/06/01 06:50:12;;;;;;;;;;;16.40;99.90;;;;;;5019199;28;19914;-59
2023/06/01 06:52:38;;;;;;;;;;;16.40;99.90;;;;;;5019137;28;19909;-59
2023/06/01 06:55:04;;;;;;;;;;;16.50;99.90;;;;;;5019425;28;19916;-59
2023/06/01 06:57:29;;;;;;;;;;;16.50;99.90;;;;;;5019335;28;20410;-60
2023/06/01 06:59:55;;;;;;;;;;;16.50;99.90;;;;;;5019435;28;20292;-59
2023/06/01 07:02:21;;;;;;;;;;;16.60;99.90;;;;;;5019243;28;20055;-59
2023/06/01 07:04:47;;;;;;;;;;;16.60;99.90;;;;;;5019263;28;20250;-59
2023/06/01 07:07:12;;;;;;;;;;;16.70;99.90;;;;;;5018881;28;20001;-59
2023/06/01 07:09:38;;;;;;;;;;;16.70;99.90;;;;;;5019087;28;19913;-59
2023/06/01 07:12:05;;;;;;;;;;;16.80;99.90;;;;;;5019081;28;19936;-59
2023/06/01 07:14:31;;;;;;;;;;;16.90;99.90;;;;;;5055163;28;19921;-59
2023/06/01 07:16:57;;;;;;;;;;;16.90;99.90;;;;;;5058413;28;19909;-59
2023/06/01 07:19:22;;;;;;;;;;;17.00;99.90;;;;;;5058681;28;19909;-59
2023/06/01 07:21:48;;;;;;;;;;;17.00;99.90;;;;;;5058524;28;19912;-59
2023/06/01 07:24:14;;;;;;;;;;;17.10;99.90;;;;;;5058613;28;19954;-59
2023/06/01 07:26:39;;;;;;;;;;;17.20;99.90;;;;;;5058381;28;19916;-59
2023/06/01 07:29:06;;;;;;;;;;;17.20;99.90;;;;;;5057789;28;19909;-59
2023/06/01 07:31:32;;;;;;;;;;;17.30;99.90;;;;;;5058113;28;20265;-58
2023/06/01 07:33:57;;;;;;;;;;;17.30;99.90;;;;;;5058049;28;19908;-59
2023/06/01 07:36:23;;;;;;;;;;;17.40;99.90;;;;;;5058630;28;19988;-59
2023/06/01 07:38:49;;;;;;;;;;;17.50;99.90;;;;;;5057931;28;19996;-59
2023/06/01 07:41:15;;;;;;;;;;;17.60;99.90;;;;;;5058284;28;19952;-60
2023/06/01 07:43:40;;;;;;;;;;;17.60;99.90;;;;;;5058429;28;20388;-59
2023/06/01 07:46:06;;;;;;;;;;;17.70;99.90;;;;;;5058063;28;20000;-59
2023/06/01 07:48:35;;;;;;;;;;;17.80;99.90;;;;;;5058345;28;19909;-59
2023/06/01 07:51:04;;;;;;;;;;;17.90;99.90;;;;;;5058368;28;19913;-59
2023/06/01 07:53:33;;;;;;;;;;;17.90;99.90;;;;;;5058026;28;19915;-59
2023/06/01 07:55:59;;;;;;;;;;;18.00;99.90;;;;;;5057990;28;19916;-59
2023/06/01 07:58:24;;;;;;;;;;;18.00;99.90;;;;;;5058126;28;19909;-59
2023/06/01 08:00:51;;;;;;;;;;;18.10;99.90;;;;;;5057707;28;19913;-59
2023/06/01 08:03:17;;;;;;;;;;;18.10;99.90;;;;;;5058099;28;19916;-59
2023/06/01 08:05:44;;;;;;;;;;;18.20;99.90;;;;;;5058272;28;19909;-59
2023/06/01 08:08:10;;;;;;;;;;;18.30;99.90;;;;;;5058044;28;19912;-59
2023/06/01 08:10:35;;;;;;;;;;;18.30;99.90;;;;;;5058251;28;19920;-59
2023/06/01 08:13:02;;;;;;;;;;;18.40;99.90;;;;;;5057671;28;19960;-59
2023/06/01 08:15:29;;;;;;;;;;;18.40;99.90;;;;;;5058204;28;19915;-59
2023/06/01 08:17:57;;;;;;;;;;;18.50;99.90;;;;;;5057105;28;20260;-60
2023/06/01 08:20:22;;;;;;;;;;;18.50;99.90;;;;;;5058174;28;20467;-59
2023/06/01 08:22:49;;;;;;;;;;;18.60;99.90;;;;;;5057797;28;19992;-60
2023/06/01 08:25:14;;;;;;;;;;;18.70;99.90;;;;;;5057884;28;19916;-59
2023/06/01 08:27:41;;;;;;;;;;;18.80;99.90;;;;;;5057732;28;19940;-60
2023/06/01 08:30:07;;;;;;;;;;;18.80;99.90;;;;;;5057595;28;19917;-59
2023/06/01 08:32:33;;;;;;;;;;;18.90;99.90;;;;;;5057804;28;19908;-60
2023/06/01 08:34:58;;;;;;;;;;;18.90;99.90;;;;;;5057629;28;20292;-60
2023/06/01 08:37:24;;;;;;;;;;;19.00;99.90;;;;;;5058059;28;19913;-59
2023/06/01 08:39:50;;;;;;;;;;;19.10;99.90;;;;;;5058042;28;19909;-59
2023/06/01 08:42:31;;;;;;;;;;;19.10;99.90;;;;;;5059879;28;19909;-60
2023/06/01 08:44:57;;;;;;;;;;;19.20;99.90;;;;;;5061362;28;19909;-59
2023/06/01 08:47:26;;;;;;;;;;;19.30;99.90;;;;;;5061428;28;19944;-60
2023/06/01 08:49:52;;;;;;;;;;;19.30;99.90;;;;;;5061316;28;19920;-60
2023/06/01 08:52:21;;;;;;;;;;;19.40;99.90;;;;;;5061234;28;19909;-59
2023/06/01 08:54:47;;;;;;;;;;;19.50;99.90;;;;;;5061580;28;19909;-60
2023/06/01 08:57:13;;;;;;;;;;;19.50;99.90;;;;;;5061137;28;19924;-60
2023/06/01 08:59:39;;;;;;;;;;;19.60;99.90;;;;;;5060992;28;19967;-59
2023/06/01 09:02:05;;;;;;;;;;;19.70;99.90;;;;;;5061263;28;19909;-60
2023/06/01 09:04:41;;;;;;;;;;;19.70;99.90;;;;;;5060939;28;19913;-60
2023/06/01 09:07:07;;;;;;;;;;;19.80;99.90;;;;;;5060950;28;19909;-60
2023/06/01 09:09:33;;;;;;;;;;;19.90;99.90;;;;;;5061033;28;19935;-59
2023/06/01 09:12:19;;;;;;;;;;;19.90;99.90;;;;;;5061035;28;19908;-60
2023/06/01 09:14:45;;;;;;;;;;;20.00;99.90;;;;;;5060980;28;19927;-60
2023/06/01 09:17:15;;;;;;;;;;;20.10;99.90;;;;;;5060649;28;19916;-60
2023/06/01 09:19:44;;;;;;;;;;;20.10;99.90;;;;;;5060725;28;19980;-60
2023/06/01 09:22:10;;;;;;;;;;;20.10;99.90;;;;;;5060626;28;19951;-60
2023/06/01 09:24:36;;;;;;;;;;;20.20;99.90;;;;;;5060684;28;19948;-60
2023/06/01 09:27:01;;;;;;;;;;;20.30;99.90;;;;;;5060532;28;19916;-60
2023/06/01 09:29:27;;;;;;;;;;;20.50;99.90;;;;;;5060685;28;19952;-60
2023/06/01 09:31:53;;;;;;;;;;;20.60;99.90;;;;;;5060501;28;21069;-59
2023/06/01 09:34:19;;;;;;;;;;;20.70;99.90;;;;;;5060651;28;19932;-60
2023/06/01 09:36:46;;;;;;;;;;;20.80;99.90;;;;;;5060231;28;19915;-60
2023/06/01 09:39:15;;;;;;;;;;;20.90;99.90;;;;;;5060483;28;19909;-60
2023/06/01 09:41:50;;;;;;;;;;;21.10;99.90;;;;;;5060494;28;20342;-60
2023/06/01 09:44:42;;;;;;;;;;;21.30;99.90;;;;;;5060427;28;19913;-60
2023/06/01 09:47:10;;;;;;;;;;;21.30;99.90;;;;;;5057924;28;19909;-60
2023/06/01 09:49:40;;;;;;;;;;;21.60;99.50;;;;;;5059857;28;19909;-60
2023/06/01 09:52:06;;;;;;;;;;;21.70;99.90;;;;;;5059743;28;19995;-60
2023/06/01 09:54:32;;;;;;;;;;;21.90;99.50;;;;;;5059809;28;19990;-60
2023/06/01 09:56:58;;;;;;;;;;;22.10;96.90;;;;;;5060095;28;19909;-60
2023/06/01 09:59:25;;;;;;;;;;;22.30;98.90;;;;;;5060384;28;20352;-60
2023/06/01 10:01:52;;;;;;;;;;;22.50;97.20;;;;;;5059905;28;19917;-60
2023/06/01 10:04:27;;;;;;;;;;;22.70;97.70;;;;;;5059888;28;19916;-60
2023/06/01 10:06:57;;;;;;;;;;;23.00;94.60;;;;;;5060032;28;20271;-60
2023/06/01 10:09:24;;;;;;;;;;;23.20;97.40;;;;;;5059687;28;19915;-60
2023/06/01 10:11:52;;;;;;;;;;;23.70;97.70;;;;;;5059598;28;19963;-60
2023/06/01 10:14:19;;;;;;;;;;;24.60;98.20;;;;;;5059426;28;19920;-60
2023/06/01 10:16:45;;;;;;;;;;;25.50;94.10;;;;;;5059619;28;20428;-60
2023/06/01 10:19:11;;;;;;;;;;;26.10;88.10;;;;;;5059361;28;19979;-60
2023/06/01 10:21:37;;;;;;;;;;;26.50;89.40;;;;;;5059672;28;19972;-60
2023/06/01 10:24:03;;;;;;;;;;;26.60;79.20;;;;;;5059738;28;20457;-60
2023/06/01 10:26:30;;;;;;;;;;;27.10;69.80;;;;;;5059326;28;20265;-60
2023/06/01 10:28:56;;;;;;;;;;;27.60;71.30;;;;;;5059625;28;19932;-60
2023/06/01 10:31:37;;;;;;;;;;;28.40;69.60;;;;;;5059230;28;19959;-60
2023/06/01 10:34:03;;;;;;;;;;;28.80;75.80;;;;;;5059748;28;19909;-60
2023/06/01 10:37:01;;;;;;;;;;;29.30;69.70;;;;;;5059385;28;19916;-60
2023/06/01 10:39:27;;;;;;;;;;;29.70;67.70;;;;;;5036244;28;20004;-60
2023/06/01 10:41:57;;;;;;;;;;;31.00;69.40;;;;;;5059482;28;19909;-60
2023/06/01 10:44:38;;;;;;;;;;;31.40;61.40;;;;;;5059342;28;19909;-61
2023/06/01 10:47:04;;;;;;;;;;;31.50;61.00;;;;;;5058889;28;19909;-61
2023/06/01 10:49:58;;;;;;;;;;;32.50;58.70;;;;;;5059212;28;19924;-61
2023/06/01 10:52:25;;;;;;;;;;;32.40;56.10;;;;;;5050211;28;19909;-61
2023/06/01 10:54:52;;;;;;;;;;;32.50;53.20;;;;;;5059012;28;19940;-61
2023/06/01 10:57:19;;;;;;;;;;;33.30;55.10;;;;;;5059149;28;19931;-61
2023/06/01 10:59:44;;;;;;;;;;;32.60;50.00;;;;;;5059002;28;19909;-60
2023/06/01 11:02:10;;;;;;;;;;;33.10;53.20;;;;;;5059241;28;19913;-61
2023/06/01 11:04:36;;;;;;;;;;;34.30;55.00;;;;;;5057880;28;19908;-61
2023/06/01 11:07:21;;;;;;;;;;;35.00;51.70;;;;;;5058880;28;20346;-60
2023/06/01 11:09:47;;;;;;;;;;;35.00;48.60;;;;;;5058671;28;20087;-60
2023/06/01 11:12:13;;;;;;;;;;;34.20;45.50;;;;;;5058815;28;19948;-61
2023/06/01 11:15:00;;;;;;;;;;;34.60;46.30;;;;;;5058091;28;20404;-61
2023/06/01 11:17:28;;;;;;;;;;;35.00;45.80;;;;;;5058311;28;20374;-61
2023/06/01 11:19:57;;;;;;;;;;;34.00;45.10;;;;;;5058447;28;19915;-61
2023/06/01 11:22:24;;;;;;;;;;;34.20;45.20;;;;;;5058597;28;20395;-61
2023/06/01 11:24:53;;;;;;;;;;;34.40;46.80;;;;;;5058175;28;20356;-61
2023/06/01 11:27:19;;;;;;;;;;;34.90;43.10;;;;;;5058266;28;20322;-61
2023/06/01 11:29:51;;;;;;;;;;;34.50;44.10;;;;;;5058393;28;19924;-61
2023/06/01 11:32:22;;;;;;;;;;;35.20;44.50;;;;;;5058724;28;19962;-61
2023/06/01 11:34:48;;;;;;;;;;;35.00;43.80;;;;;;5058490;28;20374;-61
2023/06/01 11:37:14;;;;;;;;;;;35.50;44.00;;;;;;5058529;28;19916;-61
2023/06/01 11:39:40;;;;;;;;;;;34.90;40.90;;;;;;5058181;28;19909;-61
2023/06/01 11:42:05;;;;;;;;;;;35.40;41.80;;;;;;5058388;28;19931;-61
2023/06/01 11:44:32;;;;;;;;;;;34.80;41.40;;;;;;5058668;28;20306;-60
2023/06/01 11:46:58;;;;;;;;;;;34.70;40.00;;;;;;5058104;28;19913;-61
2023/06/01 11:49:25;;;;;;;;;;;33.50;41.60;;;;;;5058218;28;19909;-61
2023/06/01 11:51:51;;;;;;;;;;;34.40;41.90;;;;;;5058210;28;19952;-61
2023/06/01 11:54:17;;;;;;;;;;;34.90;40.10;;;;;;5058155;28;20391;-61
2023/06/01 11:56:43;;;;;;;;;;;34.60;40.40;;;;;;5058150;28;19909;-61
2023/06/01 11:59:09;;;;;;;;;;;34.20;41.30;;;;;;5058133;28;19962;-60
2023/06/01 12:01:42;;;;;;;;;;;34.40;40.90;;;;;;5057698;28;19908;-61
2023/06/01 12:04:11;;;;;;;;;;;35.00;40.00;;;;;;5058287;28;19909;-61
2023/06/01 12:06:37;;;;;;;;;;;35.30;40.70;;;;;;5058135;28;19958;-61
2023/06/01 12:09:03;;;;;;;;;;;34.60;38.00;;;;;;5057839;28;19912;-61
2023/06/01 12:11:29;;;;;;;;;;;34.20;39.50;;;;;;5057890;28;19964;-54
2023/06/01 12:13:55;;;;;;;;;;;34.50;39.90;;;;;;5057668;28;19939;-57
2023/06/01 12:16:25;;;;;;;;;;;35.20;40.40;;;;;;5060200;28;20434;-56
2023/06/01 12:18:51;;;;;;;;;;;35.00;39.60;;;;;;5061878;28;19913;-56
2023/06/01 12:21:17;;;;;;;;;;;35.50;39.40;;;;;;5062224;28;19916;-55
2023/06/01 12:23:43;;;;;;;;;;;35.30;39.90;;;;;;5061759;28;19908;-56
2023/06/01 12:26:09;;;;;;;;;;;35.70;40.70;;;;;;5061646;28;19908;-55
2023/06/01 12:28:49;;;;;;;;;;;35.50;38.10;;;;;;5061663;28;20253;-50
2023/06/01 12:31:15;;;;;;;;;;;35.40;36.60;;;;;;5061688;28;20790;-55
2023/06/01 12:33:42;;;;;;;;;;;35.50;40.00;;;;;;5061610;28;20026;-53
2023/06/01 12:36:08;;;;;;;;;;;35.30;35.90;;;;;;5061685;28;19948;-55
2023/06/01 12:38:37;;;;;;;;;;;35.10;37.30;;;;;;5061529;28;19909;-54
2023/06/01 12:41:11;;;;;;;;;;;35.40;37.30;;;;;;5061594;28;19909;-56
2023/06/01 12:43:44;;;;;;;;;;;35.30;36.60;;;;;;5061434;28;19916;-54
2023/06/01 12:46:18;;;;;;;;;;;35.80;37.20;;;;;;5061116;28;19958;-54
2023/06/01 12:48:44;;;;;;;;;;;36.00;37.90;;;;;;5061492;28;19909;-54
2023/06/01 12:51:10;;;;;;;;;;;35.30;35.20;;;;;;5061368;28;19939;-54
2023/06/01 12:53:36;;;;;;;;;;;35.00;36.40;;;;;;5061393;28;19909;-55
2023/06/01 12:56:02;;;;;;;;;;;34.90;36.30;;;;;;5061672;28;20402;-54
2023/06/01 12:58:31;;;;;;;;;;;35.40;36.20;;;;;;5061142;28;20330;-54
2023/06/01 13:00:56;;;;;;;;;;;35.40;35.10;;;;;;5061369;28;19916;-54
2023/06/01 13:03:22;;;;;;;;;;;35.20;35.20;;;;;;5061248;28;20287;-54
2023/06/01 13:05:49;;;;;;;;;;;35.20;35.30;;;;;;5061327;28;19915;-51
2023/06/01 13:08:18;;;;;;;;;;;35.10;36.90;;;;;;5061138;28;19913;-54
2023/06/01 13:10:44;;;;;;;;;;;34.90;35.60;;;;;;5061092;28;19919;-54
2023/06/01 13:13:11;;;;;;;;;;;35.20;36.60;;;;;;5060763;28;20316;-54
2023/06/01 13:15:40;;;;;;;;;;;34.90;35.50;;;;;;5061036;28;20490;-55
2023/06/01 13:18:06;;;;;;;;;;;34.70;34.30;;;;;;5061031;28;19916;-55
2023/06/01 13:20:32;;;;;;;;;;;34.70;35.40;;;;;;5060966;28;20279;-53
2023/06/01 13:22:57;;;;;;;;;;;34.70;35.30;;;;;;5060857;28;20431;-55
2023/06/01 13:25:23;;;;;;;;;;;34.60;34.60;;;;;;5060821;28;19972;-55
2023/06/01 13:27:49;;;;;;;;;;;34.70;35.60;;;;;;5060059;28;19936;-54
2023/06/01 13:30:14;;;;;;;;;;;34.80;35.00;;;;;;5060841;28;19912;-55
2023/06/01 13:32:40;;;;;;;;;;;34.50;35.20;;;;;;5060481;28;19987;-54
2023/06/01 13:35:08;;;;;;;;;;;35.00;35.30;;;;;;5060676;28;19959;-51
2023/06/01 13:37:35;;;;;;;;;;;35.00;35.10;;;;;;5060318;28;19909;-54
2023/06/01 13:40:02;;;;;;;;;;;34.30;33.90;;;;;;5060378;28;19919;-54
2023/06/01 13:42:28;;;;;;;;;;;34.20;35.00;;;;;;5060511;28;19908;-55
2023/06/01 13:44:54;;;;;;;;;;;34.40;34.30;;;;;;5060514;28;19909;-55
2023/06/01 13:47:20;;;;;;;;;;;34.20;33.70;;;;;;5060130;28;19951;-52
2023/06/01 13:49:46;;;;;;;;;;;34.10;33.60;;;;;;5059886;28;20397;-54
2023/06/01 13:52:12;;;;;;;;;;;33.80;34.00;;;;;;5060283;28;19909;-55
2023/06/01 13:54:38;;;;;;;;;;;33.90;34.00;;;;;;5060229;28;19962;-55
2023/06/01 13:57:03;;;;;;;;;;;33.80;33.50;;;;;;5060203;28;19909;-55
2023/06/01 13:59:34;;;;;;;;;;;33.70;34.40;;;;;;5060346;28;19909;-55
2023/06/01 14:01:59;;;;;;;;;;;33.60;34.50;;;;;;5060493;28;19909;-54
2023/06/01 14:04:25;;;;;;;;;;;33.30;34.50;;;;;;5060053;28;19909;-54
2023/06/01 14:06:51;;;;;;;;;;;33.50;34.50;;;;;;5060268;28;19994;-55
2023/06/01 14:09:17;;;;;;;;;;;33.40;33.50;;;;;;5059827;28;19908;-55
2023/06/01 14:11:42;;;;;;;;;;;33.60;34.20;;;;;;5059596;28;19912;-54
2023/06/01 14:14:08;;;;;;;;;;;33.40;33.70;;;;;;5059674;28;19970;-54
2023/06/01 14:16:33;;;;;;;;;;;33.20;34.30;;;;;;5059645;28;19916;-55